createdAt,value
2017-01-07T00:00:19.138Z,84.71
2017-01-07T00:01:19.126Z,84.62
2017-01-07T00:02:19.118Z,84.52
2017-01-07T00:03:19.118Z,84.62
2017-01-07T00:04:19.114Z,84.62
2017-01-07T00:05:19.106Z,84.62
2017-01-07T00:06:19.094Z,84.62
2017-01-07T00:07:19.098Z,84.52
2017-01-07T00:08:19.082Z,84.52
2017-01-07T00:09:19.082Z,84.34
2017-01-07T00:10:19.074Z,84.62
2017-01-07T00:11:19.070Z,84.81
2017-01-07T00:12:18.651Z,84.81
2017-01-07T00:13:19.058Z,84.81
2017-01-07T00:14:19.059Z,84.34
2017-01-07T00:15:18.646Z,84.62
2017-01-07T00:16:19.046Z,84.81
2017-01-07T00:17:18.627Z,84.71
2017-01-07T00:18:18.627Z,84.62
2017-01-07T00:19:18.618Z,84.71
2017-01-07T00:20:18.618Z,84.34
2017-01-07T00:21:19.007Z,84.62
2017-01-07T00:22:18.603Z,84.62
2017-01-07T00:23:18.594Z,84.24
2017-01-07T00:24:18.595Z,84.43
2017-01-07T00:25:18.995Z,84.62
2017-01-07T00:26:18.991Z,84.43
2017-01-07T00:27:18.572Z,84.81
2017-01-07T00:28:18.975Z,84.71
2017-01-07T00:29:18.971Z,84.62
2017-01-07T00:30:18.971Z,84.71
2017-01-07T00:31:18.555Z,85.09
2017-01-07T00:32:18.955Z,84.99
2017-01-07T00:33:18.948Z,84.9
2017-01-07T00:34:18.943Z,84.99
2017-01-07T00:35:18.943Z,84.62
2017-01-07T00:36:18.935Z,84.99
2017-01-07T00:37:18.951Z,85.18
2017-01-07T00:38:18.919Z,85.37
2017-01-07T00:39:18.919Z,85.09
2017-01-07T00:40:18.496Z,85.09
2017-01-07T00:41:18.903Z,85.09
2017-01-07T00:42:18.908Z,85.37
2017-01-07T00:43:18.487Z,84.99
2017-01-07T00:44:18.483Z,85.09
2017-01-07T00:45:18.883Z,85.37
2017-01-07T00:46:18.879Z,85.09
2017-01-07T00:47:18.877Z,85.09
2017-01-07T00:48:18.455Z,85.09
2017-01-07T00:49:18.866Z,85.28
2017-01-07T00:50:18.859Z,85.37
2017-01-07T00:51:18.851Z,85.37
2017-01-07T00:52:18.434Z,85.37
2017-01-07T00:53:18.682Z,85.28
2017-01-07T00:54:18.426Z,85.28
2017-01-07T00:55:18.830Z,85.37
2017-01-07T00:56:18.822Z,85.37
2017-01-07T00:57:18.818Z,85.28
2017-01-07T00:58:18.961Z,85.09
2017-01-07T00:59:18.397Z,85.18
2017-01-07T01:00:18.797Z,85.18
2017-01-07T01:01:18.800Z,84.99
2017-01-07T01:02:18.785Z,85.18
2017-01-07T01:03:18.477Z,85.18
2017-01-07T01:04:18.773Z,85.18
2017-01-07T01:05:18.777Z,85.18
2017-01-07T01:06:18.353Z,84.9
2017-01-07T01:07:18.765Z,84.9
2017-01-07T01:08:18.901Z,85.09
2017-01-07T01:09:18.741Z,85.09
2017-01-07T01:10:18.333Z,85.09
2017-01-07T01:11:18.737Z,85.28
2017-01-07T01:12:18.729Z,85.28
2017-01-07T01:13:18.469Z,85.28
2017-01-07T01:14:18.721Z,85.28
2017-01-07T01:15:18.721Z,85.56
2017-01-07T01:16:18.705Z,85.47
2017-01-07T01:17:18.701Z,85.18
2017-01-07T01:18:18.697Z,85.65
2017-01-07T01:19:18.696Z,85.56
2017-01-07T01:20:18.681Z,85.84
2017-01-07T01:21:18.689Z,85.56
2017-01-07T01:22:18.676Z,85.65
2017-01-07T01:23:18.672Z,85.75
2017-01-07T01:24:18.664Z,85.84
2017-01-07T01:25:18.656Z,85.56
2017-01-07T01:26:18.236Z,85.65
2017-01-07T01:27:18.648Z,85.94
2017-01-07T01:28:18.640Z,85.47
2017-01-07T01:29:18.231Z,86.31
2017-01-07T01:30:18.632Z,85.47
2017-01-07T01:31:18.624Z,86.5
2017-01-07T01:32:18.208Z,85.56
2017-01-07T01:33:18.616Z,85.75
2017-01-07T01:34:18.616Z,85.75
2017-01-07T01:35:18.604Z,85.47
2017-01-07T01:36:18.599Z,85.84
2017-01-07T01:37:18.596Z,85.75
2017-01-07T01:38:18.588Z,85.65
2017-01-07T01:39:18.171Z,85.84
2017-01-07T01:40:18.572Z,85.65
2017-01-07T01:41:18.571Z,86.13
2017-01-07T01:42:18.560Z,85.84
2017-01-07T01:43:18.563Z,85.84
2017-01-07T01:44:18.547Z,85.75
2017-01-07T01:45:18.139Z,85.65
2017-01-07T01:46:18.547Z,85.65
2017-01-07T01:47:18.539Z,85.37
2017-01-07T01:48:18.119Z,85.28
2017-01-07T01:49:18.523Z,85.18
2017-01-07T01:50:18.523Z,85.47
2017-01-07T01:51:18.103Z,84.9
2017-01-07T01:52:18.507Z,85.65
2017-01-07T01:53:18.498Z,85.09
2017-01-07T01:54:18.499Z,85.18
2017-01-07T01:55:18.499Z,85.09
2017-01-07T01:56:18.491Z,84.99
2017-01-07T01:57:18.483Z,84.99
2017-01-07T01:58:18.467Z,85.09
2017-01-07T01:59:18.471Z,85.37
2017-01-07T02:00:18.463Z,85.37
2017-01-07T02:01:18.051Z,85.37
2017-01-07T02:02:18.460Z,84.62
2017-01-07T02:03:18.443Z,84.9
2017-01-07T02:04:18.443Z,84.62
2017-01-07T02:05:18.427Z,84.81
2017-01-07T02:06:18.435Z,84.62
2017-01-07T02:07:18.424Z,84.62
2017-01-07T02:08:18.423Z,84.81
2017-01-07T02:09:18.415Z,84.71
2017-01-07T02:10:18.407Z,84.81
2017-01-07T02:11:17.991Z,84.62
2017-01-07T02:12:18.399Z,84.43
2017-01-07T02:13:18.391Z,84.62
2017-01-07T02:14:18.392Z,84.34
2017-01-07T02:15:18.375Z,84.43
2017-01-07T02:16:18.375Z,84.34
2017-01-07T02:17:18.367Z,84.34
2017-01-07T02:18:17.955Z,84.43
2017-01-07T02:19:18.351Z,84.24
2017-01-07T02:20:18.343Z,83.68
2017-01-07T02:21:18.347Z,83.96
2017-01-07T02:22:17.931Z,83.86
2017-01-07T02:23:17.935Z,83.39
2017-01-07T02:24:18.327Z,83.68
2017-01-07T02:25:17.911Z,83.58
2017-01-07T02:26:18.323Z,83.39
2017-01-07T02:27:18.311Z,82.92
2017-01-07T02:28:18.311Z,82.26
2017-01-07T02:29:17.891Z,82.17
2017-01-07T02:30:18.299Z,81.98
2017-01-07T02:31:18.307Z,82.07
2017-01-07T02:32:18.291Z,81.79
2017-01-07T02:33:18.275Z,81.6
2017-01-07T02:34:18.279Z,81.6
2017-01-07T02:35:18.267Z,81.51
2017-01-07T02:36:18.264Z,81.51
2017-01-07T02:37:17.847Z,81.51
2017-01-07T02:38:18.251Z,81.6
2017-01-07T02:39:18.247Z,81.79
2017-01-07T02:40:18.244Z,81.89
2017-01-07T02:41:17.823Z,81.51
2017-01-07T02:42:18.235Z,81.51
2017-01-07T02:43:18.219Z,81.51
2017-01-07T02:44:17.811Z,81.51
2017-01-07T02:45:17.803Z,81.7
2017-01-07T02:46:17.803Z,81.7
2017-01-07T02:47:18.199Z,81.7
2017-01-07T02:48:18.203Z,81.7
2017-01-07T02:49:18.187Z,81.79
2017-01-07T02:50:18.187Z,81.51
2017-01-07T02:51:18.179Z,81.51
2017-01-07T02:52:18.179Z,81.51
2017-01-07T02:53:17.759Z,81.98
2017-01-07T02:54:18.163Z,81.89
2017-01-07T02:55:18.155Z,82.07
2017-01-07T02:56:18.151Z,81.98
2017-01-07T02:57:17.735Z,82.17
2017-01-07T02:58:18.143Z,81.89
2017-01-07T02:59:17.735Z,81.89
2017-01-07T03:00:18.131Z,81.98
2017-01-07T03:01:17.714Z,82.07
2017-01-07T03:02:18.118Z,81.51
2017-01-07T03:03:18.119Z,81.51
2017-01-07T03:04:18.107Z,81.7
2017-01-07T03:05:17.695Z,81.98
2017-01-07T03:06:17.691Z,81.6
2017-01-07T03:07:18.091Z,81.7
2017-01-07T03:08:18.087Z,81.7
2017-01-07T03:09:18.079Z,81.13
2017-01-07T03:10:17.663Z,81.23
2017-01-07T03:11:18.068Z,81.23
2017-01-07T03:12:18.063Z,81.04
2017-01-07T03:13:18.059Z,81.23
2017-01-07T03:14:18.059Z,81.41
2017-01-07T03:15:18.056Z,81.41
2017-01-07T03:16:18.044Z,81.13
2017-01-07T03:17:18.039Z,80.66
2017-01-07T03:18:18.040Z,80.47
2017-01-07T03:19:17.619Z,80.1
2017-01-07T03:20:17.612Z,80.47
2017-01-07T03:21:17.612Z,80.38
2017-01-07T03:22:18.013Z,80.47
2017-01-07T03:23:18.004Z,80.47
2017-01-07T03:24:17.592Z,80.19
2017-01-07T03:25:17.992Z,80.29
2017-01-07T03:26:17.988Z,80.1
2017-01-07T03:27:17.580Z,80.38
2017-01-07T03:28:17.980Z,80.66
2017-01-07T03:29:17.980Z,80.57
2017-01-07T03:30:17.964Z,80.19
2017-01-07T03:31:17.556Z,80.1
2017-01-07T03:32:17.957Z,79.44
2017-01-07T03:33:17.949Z,79.53
2017-01-07T03:34:17.945Z,79.72
2017-01-07T03:35:17.532Z,79.63
2017-01-07T03:36:17.936Z,79.72
2017-01-07T03:37:17.929Z,79.48
2017-01-07T03:38:17.926Z,80
2017-01-07T03:39:17.917Z,79.76
2017-01-07T03:40:17.513Z,79.67
2017-01-07T03:41:17.905Z,79.72
2017-01-07T03:42:17.905Z,79.29
2017-01-07T03:43:17.905Z,78.92
2017-01-07T03:44:17.893Z,79.29
2017-01-07T03:45:17.889Z,79.16
2017-01-07T03:46:17.874Z,78.97
2017-01-07T03:47:17.882Z,79.06
2017-01-07T03:48:17.878Z,79.25
2017-01-07T03:49:17.867Z,78.97
2017-01-07T03:50:17.866Z,78.97
2017-01-07T03:51:17.447Z,78.97
2017-01-07T03:52:17.855Z,78.88
2017-01-07T03:53:17.850Z,78.97
2017-01-07T03:54:17.436Z,79.44
2017-01-07T03:55:17.831Z,79.35
2017-01-07T03:56:17.831Z,79.25
2017-01-07T03:57:17.411Z,79.16
2017-01-07T03:58:17.819Z,79.35
2017-01-07T03:59:17.812Z,79.1
2017-01-07T04:00:17.816Z,79.01
2017-01-07T04:01:17.805Z,79.1
2017-01-07T04:02:17.796Z,79.2
2017-01-07T04:03:17.385Z,79.2
2017-01-07T04:04:17.780Z,79.29
2017-01-07T04:05:17.780Z,79.2
2017-01-07T04:06:17.781Z,79.2
2017-01-07T04:07:17.769Z,79.29
2017-01-07T04:08:17.765Z,78.92
2017-01-07T04:09:17.345Z,79.39
2017-01-07T04:10:17.753Z,79.1
2017-01-07T04:11:17.337Z,79.01
2017-01-07T04:12:17.745Z,78.92
2017-01-07T04:13:17.741Z,79.1
2017-01-07T04:14:17.730Z,79.48
2017-01-07T04:15:17.734Z,78.82
2017-01-07T04:16:17.310Z,78.82
2017-01-07T04:17:17.305Z,78.44
2017-01-07T04:18:17.715Z,78.92
2017-01-07T04:19:17.710Z,78.54
2017-01-07T04:20:17.702Z,78.63
2017-01-07T04:21:17.702Z,78.82
2017-01-07T04:22:17.694Z,78.54
2017-01-07T04:23:17.271Z,78.26
2017-01-07T04:24:17.276Z,78.54
2017-01-07T04:25:17.682Z,78.44
2017-01-07T04:26:17.695Z,78.35
2017-01-07T04:27:17.259Z,78.07
2017-01-07T04:28:17.659Z,78.16
2017-01-07T04:29:17.659Z,77.88
2017-01-07T04:30:17.643Z,78.07
2017-01-07T04:31:17.235Z,77.97
2017-01-07T04:32:17.227Z,78.16
2017-01-07T04:33:17.632Z,78.07
2017-01-07T04:34:17.636Z,78.35
2017-01-07T04:35:17.628Z,78.16
2017-01-07T04:36:17.620Z,78.26
2017-01-07T04:37:17.616Z,78.07
2017-01-07T04:38:17.616Z,78.44
2017-01-07T04:39:17.609Z,78.16
2017-01-07T04:40:17.189Z,78.35
2017-01-07T04:41:17.177Z,78.16
2017-01-07T04:42:17.584Z,78.35
2017-01-07T04:43:17.573Z,78.54
2017-01-07T04:44:17.569Z,78.54
2017-01-07T04:45:17.574Z,78.54
2017-01-07T04:46:17.565Z,78.63
2017-01-07T04:47:17.562Z,78.35
2017-01-07T04:48:17.554Z,78.35
2017-01-07T04:49:17.133Z,77.97
2017-01-07T04:50:17.142Z,77.97
2017-01-07T04:51:17.129Z,77.97
2017-01-07T04:52:17.534Z,78.16
2017-01-07T04:53:17.534Z,78.07
2017-01-07T04:54:17.522Z,78.07
2017-01-07T04:55:17.522Z,78.16
2017-01-07T04:56:17.518Z,78.16
2017-01-07T04:57:17.511Z,78.26
2017-01-07T04:58:17.506Z,78.16
2017-01-07T04:59:17.499Z,78.16
2017-01-07T05:00:17.495Z,78.35
2017-01-07T05:01:17.071Z,78.07
2017-01-07T05:02:17.479Z,78.26
2017-01-07T05:03:17.483Z,78.54
2017-01-07T05:04:17.062Z,78.44
2017-01-07T05:05:17.055Z,78.63
2017-01-07T05:06:17.463Z,78.82
2017-01-07T05:07:17.459Z,78.82
2017-01-07T05:08:17.456Z,78.73
2017-01-07T05:09:17.452Z,78.73
2017-01-07T05:10:17.440Z,78.26
2017-01-07T05:11:17.432Z,78.54
2017-01-07T05:12:17.432Z,78.73
2017-01-07T05:13:17.421Z,78.82
2017-01-07T05:14:17.416Z,78.82
2017-01-07T05:15:17.413Z,78.82
2017-01-07T05:16:17.000Z,78.82
2017-01-07T05:17:16.992Z,78.63
2017-01-07T05:18:16.992Z,78.73
2017-01-07T05:19:16.981Z,78.54
2017-01-07T05:20:17.389Z,79.01
2017-01-07T05:21:17.381Z,78.82
2017-01-07T05:22:17.381Z,78.54
2017-01-07T05:23:17.371Z,78.54
2017-01-07T05:24:17.366Z,78.73
2017-01-07T05:25:17.365Z,78.54
2017-01-07T05:26:17.353Z,78.54
2017-01-07T05:27:17.353Z,78.44
2017-01-07T05:28:17.349Z,78.35
2017-01-07T05:29:17.345Z,77.97
2017-01-07T05:30:17.333Z,78.35
2017-01-07T05:31:17.333Z,77.88
2017-01-07T05:32:17.325Z,77.78
2017-01-07T05:33:17.317Z,77.97
2017-01-07T05:34:17.313Z,77.88
2017-01-07T05:35:16.898Z,77.97
2017-01-07T05:36:16.893Z,77.88
2017-01-07T05:37:16.885Z,77.97
2017-01-07T05:38:17.293Z,77.78
2017-01-07T05:39:16.881Z,77.6
2017-01-07T05:40:17.278Z,77.6
2017-01-07T05:41:16.865Z,77.6
2017-01-07T05:42:17.269Z,77.69
2017-01-07T05:43:17.262Z,77.97
2017-01-07T05:44:17.266Z,78.35
2017-01-07T05:45:17.254Z,78.26
2017-01-07T05:46:17.250Z,78.16
2017-01-07T05:47:17.242Z,77.78
2017-01-07T05:48:17.238Z,77.6
2017-01-07T05:49:17.234Z,77.69
2017-01-07T05:50:17.226Z,77.6
2017-01-07T05:51:17.230Z,77.78
2017-01-07T05:52:17.225Z,77.6
2017-01-07T05:53:17.210Z,77.78
2017-01-07T05:54:17.206Z,77.6
2017-01-07T05:55:17.210Z,77.5
2017-01-07T05:56:17.202Z,77.6
2017-01-07T05:57:17.194Z,77.69
2017-01-07T05:58:17.194Z,77.88
2017-01-07T05:59:17.186Z,78.16
2017-01-07T06:00:17.178Z,78.07
2017-01-07T06:01:17.171Z,77.97
2017-01-07T06:02:17.170Z,78.07
2017-01-07T06:03:17.158Z,78.16
2017-01-07T06:04:17.163Z,77.6
2017-01-07T06:05:16.742Z,77.6
2017-01-07T06:06:17.147Z,77.6
2017-01-07T06:07:17.147Z,77.88
2017-01-07T06:08:17.135Z,77.88
2017-01-07T06:09:17.131Z,77.69
2017-01-07T06:10:17.123Z,77.88
2017-01-07T06:11:17.123Z,77.88
2017-01-07T06:12:17.119Z,78.16
2017-01-07T06:13:16.699Z,78.07
2017-01-07T06:14:16.698Z,78.07
2017-01-07T06:15:17.108Z,77.97
2017-01-07T06:16:17.100Z,78.26
2017-01-07T06:17:17.092Z,77.69
2017-01-07T06:18:17.083Z,77.78
2017-01-07T06:19:17.068Z,78.16
2017-01-07T06:20:16.668Z,78.16
2017-01-07T06:21:17.068Z,77.88
2017-01-07T06:22:16.652Z,77.69
2017-01-07T06:23:17.060Z,77.6
2017-01-07T06:24:17.060Z,77.31
2017-01-07T06:25:16.636Z,77.5
2017-01-07T06:26:16.636Z,77.69
2017-01-07T06:27:16.625Z,77.03
2017-01-07T06:28:16.620Z,77.31
2017-01-07T06:29:17.033Z,77.22
2017-01-07T06:30:17.030Z,77.22
2017-01-07T06:31:16.609Z,77.03
2017-01-07T06:32:17.017Z,77.03
2017-01-07T06:33:17.013Z,77.03
2017-01-07T06:34:16.997Z,76.84
2017-01-07T06:35:16.993Z,77.03
2017-01-07T06:36:16.993Z,76.75
2017-01-07T06:37:16.989Z,76.84
2017-01-07T06:38:16.981Z,77.03
2017-01-07T06:39:16.981Z,77.03
2017-01-07T06:40:16.968Z,76.75
2017-01-07T06:41:16.965Z,77.41
2017-01-07T06:42:16.549Z,76.84
2017-01-07T06:43:16.545Z,77.41
2017-01-07T06:44:16.945Z,77.22
2017-01-07T06:45:16.536Z,77.41
2017-01-07T06:46:16.528Z,77.12
2017-01-07T06:47:16.936Z,77.03
2017-01-07T06:48:16.924Z,76.84
2017-01-07T06:49:16.924Z,77.03
2017-01-07T06:50:16.917Z,77.31
2017-01-07T06:51:16.912Z,77.22
2017-01-07T06:52:16.912Z,77.12
2017-01-07T06:53:16.896Z,76.94
2017-01-07T06:54:16.900Z,76.94
2017-01-07T06:55:16.892Z,77.22
2017-01-07T06:56:16.476Z,77.22
2017-01-07T06:57:16.881Z,77.31
2017-01-07T06:58:16.468Z,77.31
2017-01-07T06:59:16.868Z,77.12
2017-01-07T07:00:16.868Z,77.22
2017-01-07T07:01:16.864Z,76.65
2017-01-07T07:02:16.857Z,76.65
2017-01-07T07:03:16.849Z,76.37
2017-01-07T07:04:16.441Z,76.18
2017-01-07T07:05:16.849Z,76.46
2017-01-07T07:06:16.428Z,76.84
2017-01-07T07:07:16.833Z,76.84
2017-01-07T07:08:16.825Z,77.03
2017-01-07T07:09:16.822Z,77.03
2017-01-07T07:10:16.817Z,77.07
2017-01-07T07:11:16.817Z,76.65
2017-01-07T07:12:16.401Z,76.56
2017-01-07T07:13:16.804Z,76.84
2017-01-07T07:14:16.797Z,76.46
2017-01-07T07:15:16.793Z,76.7
2017-01-07T07:16:16.777Z,76.51
2017-01-07T07:17:16.781Z,76.51
2017-01-07T07:18:16.777Z,76.89
2017-01-07T07:19:16.357Z,76.51
2017-01-07T07:20:16.357Z,76.89
2017-01-07T07:21:16.761Z,76.6
2017-01-07T07:22:16.761Z,76.98
2017-01-07T07:23:16.753Z,76.7
2017-01-07T07:24:16.749Z,77.07
2017-01-07T07:25:16.329Z,76.7
2017-01-07T07:26:16.737Z,76.98
2017-01-07T07:27:16.729Z,77.07
2017-01-07T07:28:16.717Z,76.79
2017-01-07T07:29:16.721Z,76.89
2017-01-07T07:30:16.713Z,76.7
2017-01-07T07:31:16.709Z,76.6
2017-01-07T07:32:16.709Z,76.7
2017-01-07T07:33:16.697Z,76.7
2017-01-07T07:34:16.690Z,76.41
2017-01-07T07:35:16.277Z,76.6
2017-01-07T07:36:16.682Z,76.89
2017-01-07T07:37:16.677Z,76.89
2017-01-07T07:38:16.674Z,77.07
2017-01-07T07:39:16.670Z,76.7
2017-01-07T07:40:16.254Z,76.6
2017-01-07T07:41:16.258Z,76.51
2017-01-07T07:42:16.654Z,76.41
2017-01-07T07:43:16.654Z,76.32
2017-01-07T07:44:16.233Z,76.13
2017-01-07T07:45:16.222Z,76.13
2017-01-07T07:46:16.638Z,76.13
2017-01-07T07:47:16.629Z,76.41
2017-01-07T07:48:16.622Z,75.81
2017-01-07T07:49:16.210Z,76.09
2017-01-07T07:50:16.614Z,75.71
2017-01-07T07:51:16.606Z,76.09
2017-01-07T07:52:16.194Z,76.18
2017-01-07T07:53:16.191Z,76.04
2017-01-07T07:54:16.594Z,76.04
2017-01-07T07:55:16.588Z,76.18
2017-01-07T07:56:16.179Z,76.18
2017-01-07T07:57:16.582Z,76.18
2017-01-07T07:58:16.167Z,76.09
2017-01-07T07:59:16.575Z,76.37
2017-01-07T08:00:16.566Z,76.56
2017-01-07T08:01:16.558Z,76.56
2017-01-07T08:02:16.167Z,76.46
2017-01-07T08:03:16.551Z,76.37
2017-01-07T08:04:16.551Z,77.22
2017-01-07T08:05:16.548Z,77.12
2017-01-07T08:06:16.118Z,77.03
2017-01-07T08:07:16.530Z,77.22
2017-01-07T08:08:16.530Z,77.22
2017-01-07T08:09:16.522Z,77.22
2017-01-07T08:10:16.510Z,77.31
2017-01-07T08:11:16.507Z,76.75
2017-01-07T08:12:16.098Z,77.5
2017-01-07T08:13:16.502Z,77.69
2017-01-07T08:14:16.494Z,77.12
2017-01-07T08:15:16.078Z,77.69
2017-01-07T08:16:16.483Z,77.6
2017-01-07T08:17:16.482Z,77.97
2017-01-07T08:18:16.090Z,78.26
2017-01-07T08:19:16.470Z,77.73
2017-01-07T08:20:16.062Z,77.45
2017-01-07T08:21:16.462Z,77.73
2017-01-07T08:22:16.474Z,77.55
2017-01-07T08:23:16.450Z,77.73
2017-01-07T08:24:16.038Z,77.88
2017-01-07T08:25:16.441Z,77.64
2017-01-07T08:26:16.030Z,76.79
2017-01-07T08:27:16.430Z,76.89
2017-01-07T08:28:16.013Z,77.07
2017-01-07T08:29:16.417Z,77.17
2017-01-07T08:30:16.422Z,77.26
2017-01-07T08:31:16.409Z,77.31
2017-01-07T08:32:15.998Z,77.36
2017-01-07T08:33:16.406Z,77.55
2017-01-07T08:34:15.981Z,77.45
2017-01-07T08:35:16.397Z,77.73
2017-01-07T08:36:16.389Z,77.55
2017-01-07T08:37:16.385Z,77.64
2017-01-07T08:38:16.381Z,76.98
2017-01-07T08:39:16.373Z,77.36
2017-01-07T08:40:16.369Z,77.26
2017-01-07T08:41:16.357Z,77.26
2017-01-07T08:42:16.357Z,77.36
2017-01-07T08:43:16.356Z,76.7
2017-01-07T08:44:15.940Z,76.89
2017-01-07T08:45:16.344Z,77.17
2017-01-07T08:46:15.928Z,77.07
2017-01-07T08:47:16.328Z,77.17
2017-01-07T08:48:16.332Z,76.51
2017-01-07T08:49:16.316Z,76.41
2017-01-07T08:50:16.323Z,76.51
2017-01-07T08:51:15.900Z,76.7
2017-01-07T08:52:16.292Z,76.41
2017-01-07T08:53:16.288Z,77.26
2017-01-07T08:54:16.296Z,77.17
2017-01-07T08:55:16.288Z,77.07
2017-01-07T08:56:16.285Z,76.89
2017-01-07T08:57:15.868Z,77.17
2017-01-07T08:58:16.278Z,77.17
2017-01-07T08:59:15.862Z,76.41
2017-01-07T09:00:16.274Z,76.51
2017-01-07T09:01:16.254Z,76.89
2017-01-07T09:02:16.262Z,76.51
2017-01-07T09:03:15.842Z,76.41
2017-01-07T09:04:16.250Z,76.32
2017-01-07T09:05:15.830Z,76.51
2017-01-07T09:06:16.245Z,77.17
2017-01-07T09:07:15.821Z,76.51
2017-01-07T09:08:16.231Z,76.7
2017-01-07T09:09:15.813Z,76.51
2017-01-07T09:10:16.224Z,76.89
2017-01-07T09:11:15.801Z,76.51
2017-01-07T09:12:16.213Z,76.7
2017-01-07T09:13:16.209Z,76.51
2017-01-07T09:14:16.196Z,76.79
2017-01-07T09:15:16.192Z,76.89
2017-01-07T09:16:16.196Z,76.7
2017-01-07T09:17:16.184Z,76.32
2017-01-07T09:18:15.768Z,76.22
2017-01-07T09:19:16.180Z,75.94
2017-01-07T09:20:16.172Z,75.94
2017-01-07T09:21:16.168Z,75.85
2017-01-07T09:22:16.155Z,76.04
2017-01-07T09:23:16.151Z,76.41
2017-01-07T09:24:16.155Z,75.75
2017-01-07T09:25:16.147Z,75.75
2017-01-07T09:26:15.735Z,75.56
2017-01-07T09:27:16.139Z,75.75
2017-01-07T09:28:16.138Z,75.42
2017-01-07T09:29:16.130Z,74.95
2017-01-07T09:30:16.126Z,74.76
2017-01-07T09:31:15.711Z,75.04
2017-01-07T09:32:16.114Z,74.57
2017-01-07T09:33:16.110Z,74.57
2017-01-07T09:34:16.106Z,74.47
2017-01-07T09:35:15.842Z,74.66
2017-01-07T09:36:16.098Z,74.38
2017-01-07T09:37:16.086Z,73.81
2017-01-07T09:38:16.090Z,74.28
2017-01-07T09:39:16.082Z,73.91
2017-01-07T09:40:16.082Z,74.1
2017-01-07T09:41:16.070Z,74.1
2017-01-07T09:42:16.065Z,73.47
2017-01-07T09:43:16.070Z,73.47
2017-01-07T09:44:15.646Z,72.72
2017-01-07T09:45:16.062Z,72.53
2017-01-07T09:46:16.058Z,72.25
2017-01-07T09:47:16.050Z,71.87
2017-01-07T09:48:16.045Z,71.49
2017-01-07T09:49:16.042Z,71.49
2017-01-07T09:50:16.038Z,71.3
2017-01-07T09:51:16.034Z,71.21
2017-01-07T09:52:16.026Z,70.73
2017-01-07T09:53:15.617Z,70.64
2017-01-07T09:54:16.038Z,70.73
2017-01-07T09:55:16.014Z,70.36
2017-01-07T09:56:16.014Z,70.11
2017-01-07T09:57:16.002Z,69.92
2017-01-07T09:58:15.590Z,69.45
2017-01-07T09:59:15.578Z,69.64
2017-01-07T10:00:15.574Z,69.35
2017-01-07T10:01:15.574Z,68.79
2017-01-07T10:02:15.986Z,69.17
2017-01-07T10:03:15.562Z,68.88
2017-01-07T10:04:15.562Z,69.07
2017-01-07T10:05:15.970Z,69.07
2017-01-07T10:06:15.966Z,68.98
2017-01-07T10:07:15.966Z,69.35
2017-01-07T10:08:15.957Z,68.13
2017-01-07T10:09:15.970Z,68.23
2017-01-07T10:10:15.545Z,67.75
2017-01-07T10:11:15.949Z,67.85
2017-01-07T10:12:15.937Z,67.47
2017-01-07T10:13:15.934Z,67.28
2017-01-07T10:14:15.527Z,67.38
2017-01-07T10:15:15.930Z,67.09
2017-01-07T10:16:15.513Z,66.52
2017-01-07T10:17:15.922Z,67
2017-01-07T10:18:15.922Z,66.52
2017-01-07T10:19:15.918Z,66.52
2017-01-07T10:20:15.490Z,66.24
2017-01-07T10:21:15.493Z,66.43
2017-01-07T10:22:15.898Z,66.05
2017-01-07T10:23:15.889Z,65.96
2017-01-07T10:24:15.893Z,65.61
2017-01-07T10:25:15.473Z,65.23
2017-01-07T10:26:15.885Z,65.61
2017-01-07T10:27:15.891Z,65.8
2017-01-07T10:28:15.865Z,65.61
2017-01-07T10:29:15.878Z,65.71
2017-01-07T10:30:15.457Z,65.61
2017-01-07T10:31:15.861Z,65.23
2017-01-07T10:32:15.858Z,65.33
2017-01-07T10:33:15.853Z,65.52
2017-01-07T10:34:15.846Z,65.52
2017-01-07T10:35:15.850Z,64.86
2017-01-07T10:36:15.842Z,64.58
2017-01-07T10:37:15.838Z,64.58
2017-01-07T10:38:15.425Z,63.6
2017-01-07T10:39:15.830Z,63.22
2017-01-07T10:40:15.421Z,63.13
2017-01-07T10:41:15.830Z,63.41
2017-01-07T10:42:15.825Z,63.98
2017-01-07T10:43:15.402Z,63.85
2017-01-07T10:44:15.814Z,64.23
2017-01-07T10:45:15.398Z,64.61
2017-01-07T10:46:15.806Z,64.79
2017-01-07T10:47:15.809Z,65.36
2017-01-07T10:48:15.803Z,65.55
2017-01-07T10:49:15.795Z,65.64
2017-01-07T10:50:15.795Z,65.55
2017-01-07T10:51:15.787Z,65.36
2017-01-07T10:52:15.787Z,65.26
2017-01-07T10:53:15.375Z,65.36
2017-01-07T10:54:15.779Z,65.55
2017-01-07T10:55:15.771Z,65.45
2017-01-07T10:56:15.764Z,65.55
2017-01-07T10:57:15.764Z,65.83
2017-01-07T10:58:15.764Z,66.21
2017-01-07T10:59:15.764Z,66.15
2017-01-07T11:00:15.756Z,65.96
2017-01-07T11:01:15.752Z,65.96
2017-01-07T11:02:15.744Z,65.86
2017-01-07T11:03:15.745Z,66.05
2017-01-07T11:04:15.744Z,65.77
2017-01-07T11:05:15.737Z,65.39
2017-01-07T11:06:15.733Z,64.92
2017-01-07T11:07:15.729Z,64.92
2017-01-07T11:08:15.726Z,65.01
2017-01-07T11:09:15.729Z,65.11
2017-01-07T11:10:15.722Z,64.83
2017-01-07T11:11:15.722Z,64.54
2017-01-07T11:12:15.302Z,64.26
2017-01-07T11:13:15.706Z,64.36
2017-01-07T11:14:15.706Z,64.11
2017-01-07T11:15:15.294Z,64.29
2017-01-07T11:16:15.694Z,64.67
2017-01-07T11:17:15.703Z,64.48
2017-01-07T11:18:15.691Z,64.39
2017-01-07T11:19:15.287Z,64.29
2017-01-07T11:20:15.691Z,64.48
2017-01-07T11:21:15.679Z,63.63
2017-01-07T11:22:15.676Z,63.73
2017-01-07T11:23:15.271Z,63.73
2017-01-07T11:24:15.676Z,64.01
2017-01-07T11:25:15.260Z,63.82
2017-01-07T11:26:15.664Z,63.82
2017-01-07T11:27:15.664Z,64.01
2017-01-07T11:28:15.664Z,63.92
2017-01-07T11:29:15.656Z,63.73
2017-01-07T11:30:15.657Z,63.73
2017-01-07T11:31:15.653Z,63.26
2017-01-07T11:32:15.640Z,63.29
2017-01-07T11:33:15.225Z,63.19
2017-01-07T11:34:15.637Z,62.72
2017-01-07T11:35:15.641Z,62.72
2017-01-07T11:36:15.639Z,62.81
2017-01-07T11:37:15.629Z,62.62
2017-01-07T11:38:15.213Z,62.53
2017-01-07T11:39:15.625Z,63
2017-01-07T11:40:15.621Z,62.44
2017-01-07T11:41:15.614Z,62.62
2017-01-07T11:42:15.614Z,62.53
2017-01-07T11:43:15.614Z,62.44
2017-01-07T11:44:15.197Z,62.34
2017-01-07T11:45:15.194Z,62.53
2017-01-07T11:46:15.602Z,62.34
2017-01-07T11:47:15.594Z,62.44
2017-01-07T11:48:15.594Z,62.44
2017-01-07T11:49:15.586Z,61.96
2017-01-07T11:50:15.591Z,62.06
2017-01-07T11:51:15.586Z,62.34
2017-01-07T11:52:15.578Z,62.34
2017-01-07T11:53:15.162Z,61.96
2017-01-07T11:54:15.571Z,61.52
2017-01-07T11:55:15.402Z,61.43
2017-01-07T11:56:15.566Z,61.52
2017-01-07T11:57:15.147Z,61.43
2017-01-07T11:58:15.555Z,61.58
2017-01-07T11:59:15.555Z,61.58
2017-01-07T12:00:15.555Z,61.8
2017-01-07T12:01:15.552Z,61.99
2017-01-07T12:02:15.547Z,62.47
2017-01-07T12:03:15.136Z,62.18
2017-01-07T12:04:15.540Z,62.47
2017-01-07T12:05:15.533Z,62.18
2017-01-07T12:06:15.532Z,62.37
2017-01-07T12:07:15.528Z,61.8
2017-01-07T12:08:15.529Z,62.09
2017-01-07T12:09:15.521Z,61.99
2017-01-07T12:10:15.117Z,61.9
2017-01-07T12:11:15.109Z,62.09
2017-01-07T12:12:15.521Z,61.9
2017-01-07T12:13:15.509Z,62.09
2017-01-07T12:14:15.506Z,62.09
2017-01-07T12:15:15.510Z,61.52
2017-01-07T12:16:15.506Z,61.33
2017-01-07T12:17:15.502Z,61.43
2017-01-07T12:18:15.530Z,61.43
2017-01-07T12:19:15.498Z,61.61
2017-01-07T12:20:15.490Z,61.71
2017-01-07T12:21:15.079Z,61.52
2017-01-07T12:22:15.491Z,61.33
2017-01-07T12:23:15.487Z,61.61
2017-01-07T12:24:15.483Z,61.33
2017-01-07T12:25:15.475Z,61.33
2017-01-07T12:26:15.480Z,61.43
2017-01-07T12:27:15.063Z,61.61
2017-01-07T12:28:15.467Z,61.43
2017-01-07T12:29:15.460Z,60.39
2017-01-07T12:30:15.468Z,60.58
2017-01-07T12:31:15.074Z,60.3
2017-01-07T12:32:15.047Z,60.3
2017-01-07T12:33:15.448Z,60.3
2017-01-07T12:34:15.452Z,60.49
2017-01-07T12:35:15.452Z,60.3
2017-01-07T12:36:15.036Z,60.67
2017-01-07T12:37:15.440Z,60.49
2017-01-07T12:38:15.033Z,60.3
2017-01-07T12:39:15.437Z,60.67
2017-01-07T12:40:15.021Z,60.96
2017-01-07T12:41:15.437Z,61.05
2017-01-07T12:42:15.429Z,60.86
2017-01-07T12:43:15.017Z,60.77
2017-01-07T12:44:15.421Z,61.24
2017-01-07T12:45:15.421Z,60.49
2017-01-07T12:46:15.419Z,60.67
2017-01-07T12:47:15.002Z,60.77
2017-01-07T12:48:15.414Z,61.05
2017-01-07T12:49:15.402Z,61.43
2017-01-07T12:50:14.998Z,61.43
2017-01-07T12:51:15.398Z,61.33
2017-01-07T12:52:15.394Z,61.43
2017-01-07T12:53:15.394Z,61.33
2017-01-07T12:54:14.986Z,61.24
2017-01-07T12:55:15.390Z,61.33